Time;durP1;ratioP1;P1;durP2;ratioP2;P2;SDS_P1;SDS_P2;PMS_P1;PMS_P2;Temp;Humidity;BMP_temperature;BMP_pressure;BME280_temperature;BME280_humidity;BME280_pressure;Samples;Min_cycle;Max_cycle;Signal;HPM_P1;HPM_P2
2022/04/03 00:00:49;;;;;;;0.30;0.30;;;8.20;79.70;;;;;;5013191;28;20705;-73
2022/04/03 00:03:15;;;;;;;0.20;0.20;;;8.20;78.80;;;;;;5016624;28;20181;-73
2022/04/03 00:05:43;;;;;;;1.90;0.20;;;8.20;78.70;;;;;;5007962;28;20803;-74
2022/04/03 00:08:10;;;;;;;0.53;0.20;;;8.10;78.30;;;;;;5013426;28;20172;-73
2022/04/03 00:10:36;;;;;;;2.80;0.30;;;8.00;78.50;;;;;;5009324;28;20216;-73
2022/04/03 00:13:03;;;;;;;0.30;0.30;;;7.90;79.00;;;;;;5007858;28;20960;-73
2022/04/03 00:15:29;;;;;;;1.83;0.30;;;8.00;79.00;;;;;;5019135;28;20181;-73
2022/04/03 00:17:55;;;;;;;0.37;0.30;;;8.00;79.70;;;;;;5016708;28;20246;-74
2022/04/03 00:20:21;;;;;;;0.90;0.40;;;8.00;79.90;;;;;;5010195;28;20263;-72
2022/04/03 00:22:52;;;;;;;0.40;0.20;;;8.00;80.70;;;;;;5016215;28;20635;-72
2022/04/03 00:25:18;;;;;;;0.20;0.20;;;8.00;79.30;;;;;;5015495;28;20177;-72
2022/04/03 00:27:47;;;;;;;0.20;0.20;;;8.10;79.50;;;;;;5015127;28;20267;-73
2022/04/03 00:30:13;;;;;;;0.10;0.10;;;8.00;80.80;;;;;;5015161;28;20203;-72
2022/04/03 00:32:40;;;;;;;0.20;0.20;;;8.00;81.40;;;;;;5015553;28;20283;-72
2022/04/03 00:35:07;;;;;;;0.30;0.30;;;8.00;81.10;;;;;;5014534;28;20185;-72
2022/04/03 00:37:33;;;;;;;0.47;0.40;;;8.00;81.40;;;;;;5012442;28;20617;-72
2022/04/03 00:39:59;;;;;;;0.30;0.30;;;8.00;81.70;;;;;;5017347;28;20180;-73
2022/04/03 00:42:25;;;;;;;0.40;0.40;;;7.90;82.20;;;;;;5015877;28;20196;-72
2022/04/03 00:44:51;;;;;;;0.60;0.60;;;7.90;82.40;;;;;;5016922;28;20183;-72
2022/04/03 00:47:19;;;;;;;1.40;0.60;;;7.80;82.80;;;;;;5011330;28;20184;-72
2022/04/03 00:49:45;;;;;;;0.40;0.40;;;7.80;82.70;;;;;;5010324;28;20276;-72
2022/04/03 00:52:11;;;;;;;3.60;0.67;;;7.80;82.50;;;;;;5011265;28;20670;-72
2022/04/03 00:54:37;;;;;;;0.53;0.53;;;7.80;82.60;;;;;;5014557;28;20192;-72
2022/04/03 00:57:07;;;;;;;0.87;0.37;;;7.90;82.60;;;;;;5015740;28;20212;-72
2022/04/03 00:59:34;;;;;;;0.40;0.40;;;7.90;82.40;;;;;;5014229;28;20677;-72
2022/04/03 01:02:00;;;;;;;0.40;0.40;;;7.80;82.40;;;;;;5017529;28;20180;-72
2022/04/03 01:04:26;;;;;;;1.10;0.50;;;7.80;82.60;;;;;;5012779;28;22004;-72
2022/04/03 01:06:52;;;;;;;1.17;0.70;;;7.80;82.80;;;;;;5018666;28;20228;-73
2022/04/03 01:09:17;;;;;;;0.60;0.60;;;7.80;83.10;;;;;;5016651;28;20189;-72
2022/04/03 01:11:45;;;;;;;2.20;0.43;;;7.90;82.60;;;;;;5015872;28;20285;-72
2022/04/03 01:14:11;;;;;;;0.77;0.30;;;7.90;80.70;;;;;;5013185;28;20724;-73
2022/04/03 01:16:37;;;;;;;0.30;0.30;;;7.90;78.30;;;;;;5016035;28;20182;-73
2022/04/03 01:19:04;;;;;;;0.40;0.40;;;7.80;77.60;;;;;;5017919;28;20305;-73
2022/04/03 01:21:29;;;;;;;0.97;0.30;;;7.80;77.10;;;;;;5011574;28;20177;-74
2022/04/03 01:23:55;;;;;;;0.13;0.13;;;7.80;77.20;;;;;;5011224;28;20187;-73
2022/04/03 01:26:23;;;;;;;0.40;0.40;;;7.80;77.40;;;;;;5011652;28;20187;-73
2022/04/03 01:28:51;;;;;;;0.23;0.23;;;7.80;77.40;;;;;;5010361;28;20193;-72
2022/04/03 01:31:17;;;;;;;0.57;0.50;;;7.80;77.20;;;;;;5015585;28;20177;-72
2022/04/03 01:33:43;;;;;;;0.30;0.30;;;7.70;77.10;;;;;;5011321;28;20312;-72
2022/04/03 01:36:09;;;;;;;0.73;0.33;;;7.70;77.00;;;;;;5013367;28;20184;-73
2022/04/03 01:38:35;;;;;;;0.50;0.20;;;7.70;77.20;;;;;;5015597;28;20184;-73
2022/04/03 01:41:00;;;;;;;3.13;0.30;;;7.70;77.10;;;;;;5013695;28;20221;-72
2022/04/03 01:43:26;;;;;;;0.20;0.20;;;7.60;77.30;;;;;;5011526;28;20263;-73
2022/04/03 01:45:52;;;;;;;0.30;0.30;;;7.60;77.10;;;;;;5014535;28;20837;-72
2022/04/03 01:48:18;;;;;;;0.20;0.20;;;7.60;77.20;;;;;;5015327;28;20197;-73
2022/04/03 01:50:44;;;;;;;0.10;0.10;;;7.60;77.50;;;;;;5017864;28;20192;-72
2022/04/03 01:53:09;;;;;;;1.13;0.30;;;7.60;77.40;;;;;;5012737;28;20239;-71
2022/04/03 01:55:35;;;;;;;0.20;0.20;;;7.60;77.50;;;;;;5007993;28;20647;-72
2022/04/03 01:58:06;;;;;;;0.40;0.10;;;7.50;77.80;;;;;;5015403;28;20335;-72
2022/04/03 02:00:33;;;;;;;0.20;0.20;;;7.50;78.00;;;;;;5010505;28;20177;-72
2022/04/03 02:02:59;;;;;;;0.10;0.10;;;7.50;77.90;;;;;;5010776;28;20199;-73
2022/04/03 02:05:25;;;;;;;0.30;0.30;;;7.50;77.80;;;;;;5010191;28;20624;-73
2022/04/03 02:07:51;;;;;;;0.80;0.30;;;7.50;78.00;;;;;;5011084;28;20183;-74
2022/04/03 02:10:17;;;;;;;0.40;0.37;;;7.50;78.30;;;;;;5012866;28;20173;-72
2022/04/03 02:12:43;;;;;;;0.30;0.30;;;7.50;78.40;;;;;;5008753;28;20224;-73
2022/04/03 02:15:15;;;;;;;0.93;0.40;;;7.40;78.50;;;;;;5019385;28;20365;-73
2022/04/03 02:17:41;;;;;;;0.20;0.20;;;7.40;78.70;;;;;;5016374;28;20180;-72
2022/04/03 02:20:09;;;;;;;0.73;0.20;;;7.40;79.60;;;;;;5010852;28;20227;-72
2022/04/03 02:22:35;;;;;;;3.10;0.30;;;7.40;79.40;;;;;;5018824;28;20731;-72
2022/04/03 02:25:03;;;;;;;0.20;0.20;;;7.40;79.70;;;;;;5014736;28;20264;-73
2022/04/03 02:27:30;;;;;;;0.30;0.20;;;7.30;79.40;;;;;;5015585;28;20212;-72
2022/04/03 02:29:56;;;;;;;0.40;0.40;;;7.30;79.40;;;;;;5012003;28;20266;-72
2022/04/03 02:32:21;;;;;;;0.83;0.20;;;7.30;79.40;;;;;;5008240;28;20347;-72
2022/04/03 02:34:47;;;;;;;0.10;0.10;;;7.30;79.40;;;;;;5014950;28;20689;-72
2022/04/03 02:37:14;;;;;;;0.27;0.27;;;7.20;79.80;;;;;;5013610;28;20181;-72
2022/04/03 02:39:41;;;;;;;0.23;0.23;;;7.20;80.00;;;;;;5014024;28;20646;-72
2022/04/03 02:42:07;;;;;;;0.20;0.20;;;7.20;80.40;;;;;;5012973;28;20675;-73
2022/04/03 02:44:33;;;;;;;1.00;0.40;;;7.20;79.90;;;;;;5013185;28;20208;-72
2022/04/03 02:46:58;;;;;;;0.20;0.20;;;7.20;79.70;;;;;;5009503;28;20220;-71
2022/04/03 02:49:24;;;;;;;0.10;0.10;;;7.10;79.70;;;;;;5014871;28;20188;-72
2022/04/03 02:51:50;;;;;;;0.20;0.20;;;7.10;80.10;;;;;;5009484;28;20618;-73
2022/04/03 02:54:16;;;;;;;0.47;0.33;;;7.10;79.80;;;;;;5014126;28;20713;-73
2022/04/03 02:56:41;;;;;;;0.40;0.20;;;7.10;79.80;;;;;;5011304;28;20193;-72
2022/04/03 02:59:07;;;;;;;0.67;0.40;;;7.10;80.00;;;;;;5011912;28;20181;-73
2022/04/03 03:01:33;;;;;;;0.20;0.20;;;7.00;80.50;;;;;;5010411;28;20211;-73
2022/04/03 03:03:59;;;;;;;2.40;0.30;;;7.00;80.80;;;;;;5012137;28;20205;-71
2022/04/03 03:06:24;;;;;;;0.60;0.23;;;7.00;80.70;;;;;;5013262;28;20203;-72
2022/04/03 03:08:50;;;;;;;2.03;0.40;;;6.90;80.90;;;;;;5011986;28;20188;-72
2022/04/03 03:11:16;;;;;;;1.20;0.30;;;6.90;80.50;;;;;;5014407;28;20204;-73
2022/04/03 03:13:41;;;;;;;0.20;0.20;;;6.90;80.30;;;;;;5019274;28;20282;-73
2022/04/03 03:16:07;;;;;;;0.70;0.30;;;6.80;80.50;;;;;;5008997;28;20187;-73
2022/04/03 03:18:34;;;;;;;0.10;0.10;;;6.90;80.50;;;;;;5013813;28;20192;-73
2022/04/03 03:20:59;;;;;;;0.37;0.10;;;6.90;80.00;;;;;;5015162;28;20189;-72
2022/04/03 03:23:25;;;;;;;0.30;0.20;;;6.90;79.80;;;;;;5009351;28;20692;-73
2022/04/03 03:25:51;;;;;;;0.17;0.17;;;7.00;79.60;;;;;;5012076;28;20184;-73
2022/04/03 03:28:16;;;;;;;0.10;0.10;;;7.10;79.30;;;;;;5015942;28;20177;-74
2022/04/03 03:30:43;;;;;;;1.53;0.10;;;7.10;79.10;;;;;;5009144;28;20192;-74
2022/04/03 03:33:09;;;;;;;0.23;0.23;;;7.10;78.90;;;;;;5007800;28;20328;-73
2022/04/03 03:35:35;;;;;;;0.30;0.30;;;7.20;78.80;;;;;;5015990;28;20271;-73
2022/04/03 03:38:01;;;;;;;0.13;0.13;;;7.30;78.90;;;;;;5012252;28;20180;-73
2022/04/03 03:40:27;;;;;;;1.40;0.20;;;7.30;78.20;;;;;;5017751;28;20625;-73
2022/04/03 03:42:52;;;;;;;0.07;0.07;;;7.30;78.20;;;;;;5015434;28;20299;-73
2022/04/03 03:45:18;;;;;;;0.10;0.10;;;7.20;78.20;;;;;;5009865;28;20288;-73
2022/04/03 03:47:45;;;;;;;0.17;0.13;;;7.30;78.20;;;;;;5016191;28;20235;-73
2022/04/03 03:50:11;;;;;;;0.10;0.10;;;7.30;77.90;;;;;;5019643;28;20882;-73
2022/04/03 03:52:37;;;;;;;2.00;0.27;;;7.20;77.50;;;;;;5022334;28;20227;-73
2022/04/03 03:55:03;;;;;;;0.10;0.10;;;7.20;77.10;;;;;;5018088;28;20189;-73
2022/04/03 03:57:28;;;;;;;0.10;0.10;;;7.20;77.00;;;;;;5014571;28;20188;-73
2022/04/03 03:59:54;;;;;;;0.10;0.10;;;7.30;76.60;;;;;;5015615;28;20195;-73
2022/04/03 04:02:20;;;;;;;0.17;0.17;;;7.30;76.80;;;;;;5015528;28;20287;-72
2022/04/03 04:04:45;;;;;;;2.53;0.10;;;7.30;76.50;;;;;;5019755;28;20191;-73
2022/04/03 04:07:11;;;;;;;1.90;0.20;;;7.10;75.90;;;;;;5018500;28;20188;-73
2022/04/03 04:09:37;;;;;;;0.00;0.00;;;7.20;76.20;;;;;;5016891;28;20181;-73
2022/04/03 04:12:04;;;;;;;0.10;0.10;;;7.20;75.90;;;;;;5018869;28;20223;-73
2022/04/03 04:14:30;;;;;;;0.17;0.17;;;7.20;75.10;;;;;;5012981;28;20196;-73
2022/04/03 04:16:55;;;;;;;0.17;0.17;;;7.10;75.10;;;;;;5016214;28;20181;-73
2022/04/03 04:19:21;;;;;;;0.00;0.00;;;7.10;75.00;;;;;;5012992;28;20187;-73
2022/04/03 04:21:47;;;;;;;0.00;0.00;;;7.10;75.00;;;;;;5018832;28;20192;-73
2022/04/03 04:24:12;;;;;;;0.10;0.10;;;7.10;75.40;;;;;;5016393;28;20200;-73
2022/04/03 04:26:38;;;;;;;0.10;0.10;;;7.10;75.20;;;;;;5019149;28;20199;-73
2022/04/03 04:29:05;;;;;;;0.10;0.10;;;7.10;75.30;;;;;;5010648;28;20223;-73
2022/04/03 04:31:30;;;;;;;0.40;0.20;;;7.10;75.50;;;;;;5016391;28;20193;-73
2022/04/03 04:33:56;;;;;;;0.73;0.10;;;7.10;75.20;;;;;;5016206;28;20288;-73
2022/04/03 04:36:22;;;;;;;0.07;0.07;;;7.10;75.30;;;;;;5018367;28;20640;-73
2022/04/03 04:38:47;;;;;;;0.00;0.00;;;7.10;75.10;;;;;;5017479;28;20181;-73
2022/04/03 04:41:13;;;;;;;0.10;0.10;;;7.20;75.00;;;;;;5015515;28;20272;-73
2022/04/03 04:43:40;;;;;;;0.20;0.20;;;7.20;75.20;;;;;;5016212;28;20197;-72
2022/04/03 04:46:05;;;;;;;0.27;0.10;;;7.20;74.80;;;;;;5013572;28;20211;-72
2022/04/03 04:48:32;;;;;;;0.20;0.20;;;7.20;74.90;;;;;;5017079;28;20215;-73
2022/04/03 04:50:58;;;;;;;0.10;0.10;;;7.20;74.90;;;;;;5013614;28;20258;-72
2022/04/03 04:53:23;;;;;;;0.00;0.00;;;7.30;75.20;;;;;;5018194;28;20671;-73
2022/04/03 04:55:49;;;;;;;0.00;0.00;;;7.20;75.30;;;;;;5015728;28;20205;-73
2022/04/03 04:58:15;;;;;;;0.10;0.10;;;7.20;75.30;;;;;;5016354;28;20268;-73
2022/04/03 05:00:41;;;;;;;0.00;0.00;;;7.20;75.40;;;;;;5017750;28;20185;-73
2022/04/03 05:03:06;;;;;;;0.00;0.00;;;7.30;75.10;;;;;;5011639;28;20187;-73
2022/04/03 05:05:33;;;;;;;0.00;0.00;;;7.30;75.40;;;;;;5010969;28;20276;-73
2022/04/03 05:08:00;;;;;;;0.10;0.10;;;7.40;75.10;;;;;;5015800;28;20669;-73
2022/04/03 05:10:26;;;;;;;0.00;0.00;;;7.30;74.50;;;;;;5014508;28;20187;-73
2022/04/03 05:12:55;;;;;;;0.00;0.00;;;7.40;74.40;;;;;;5019613;28;20643;-73
2022/04/03 05:15:23;;;;;;;0.60;0.10;;;7.40;74.20;;;;;;5019537;28;20192;-73
2022/04/03 05:17:49;;;;;;;0.10;0.10;;;7.50;73.90;;;;;;5013010;28;20188;-73
2022/04/03 05:20:15;;;;;;;0.20;0.20;;;7.50;73.20;;;;;;5011878;28;20192;-72
2022/04/03 05:22:42;;;;;;;0.10;0.10;;;7.50;73.20;;;;;;5015033;28;20328;-73
2022/04/03 05:25:11;;;;;;;0.10;0.10;;;7.50;73.20;;;;;;5014200;28;20189;-73
2022/04/03 05:27:38;;;;;;;0.00;0.00;;;7.40;72.70;;;;;;5012578;28;20651;-74
2022/04/03 05:30:04;;;;;;;0.23;0.10;;;7.30;72.80;;;;;;5014368;28;20188;-75
2022/04/03 05:32:31;;;;;;;0.10;0.10;;;7.30;73.10;;;;;;5013313;28;20735;-73
2022/04/03 05:34:58;;;;;;;0.10;0.10;;;7.20;73.40;;;;;;5015230;28;21011;-73
2022/04/03 05:37:24;;;;;;;0.00;0.00;;;7.30;73.40;;;;;;5015039;28;20180;-73
2022/04/03 05:39:51;;;;;;;0.00;0.00;;;7.30;72.70;;;;;;5012905;28;20185;-74
2022/04/03 05:42:18;;;;;;;0.07;0.07;;;7.20;73.00;;;;;;5015987;28;20188;-73
2022/04/03 05:44:44;;;;;;;0.10;0.10;;;7.30;72.70;;;;;;5013632;28;20182;-74
2022/04/03 05:47:09;;;;;;;0.10;0.10;;;7.40;72.50;;;;;;5015663;28;20223;-73
2022/04/03 05:49:36;;;;;;;0.20;0.20;;;7.40;73.10;;;;;;5018761;28;20659;-73
2022/04/03 05:52:02;;;;;;;0.00;0.00;;;7.40;72.50;;;;;;5015087;28;20216;-73
2022/04/03 05:54:28;;;;;;;0.10;0.10;;;7.50;71.80;;;;;;5016571;28;20276;-73
2022/04/03 05:56:53;;;;;;;0.30;0.10;;;7.50;72.20;;;;;;5014663;28;20293;-74
2022/04/03 05:59:20;;;;;;;1.33;0.10;;;7.50;71.60;;;;;;5014110;28;20185;-74
2022/04/03 06:01:49;;;;;;;2.10;0.03;;;7.50;71.70;;;;;;5008037;28;20307;-73
2022/04/03 06:04:16;;;;;;;0.53;0.20;;;7.50;71.40;;;;;;5012027;28;20193;-74
2022/04/03 06:06:41;;;;;;;0.20;0.07;;;7.60;71.60;;;;;;5010359;28;20207;-73
2022/04/03 06:09:08;;;;;;;0.10;0.03;;;7.60;71.90;;;;;;5013039;28;20177;-74
2022/04/03 06:11:34;;;;;;;0.00;0.00;;;7.70;72.00;;;;;;5010274;28;20570;-73
2022/04/03 06:14:00;;;;;;;0.10;0.10;;;7.70;72.00;;;;;;5010299;28;20184;-73
2022/04/03 06:16:27;;;;;;;0.10;0.10;;;7.70;72.10;;;;;;5013142;28;20176;-73
2022/04/03 06:18:53;;;;;;;0.40;0.10;;;7.70;71.80;;;;;;5008630;28;20414;-71
2022/04/03 06:21:20;;;;;;;1.37;0.10;;;7.70;72.20;;;;;;5013376;28;20187;-73
2022/04/03 06:23:45;;;;;;;0.07;0.07;;;7.70;72.10;;;;;;5009491;28;20630;-71
2022/04/03 06:26:12;;;;;;;0.10;0.10;;;7.70;72.00;;;;;;5014802;28;20184;-71
2022/04/03 06:28:37;;;;;;;0.20;0.13;;;7.80;72.00;;;;;;5009720;28;20187;-72
2022/04/03 06:31:04;;;;;;;0.10;0.10;;;7.80;72.30;;;;;;5010978;28;20185;-71
2022/04/03 06:33:30;;;;;;;0.10;0.10;;;7.90;71.50;;;;;;5007930;28;20216;-72
2022/04/03 06:35:56;;;;;;;0.07;0.07;;;7.90;71.40;;;;;;5011826;28;20697;-72
2022/04/03 06:38:22;;;;;;;0.10;0.10;;;7.80;71.70;;;;;;5008925;28;20674;-71
2022/04/03 06:40:53;;;;;;;0.10;0.10;;;7.80;71.80;;;;;;5009040;28;20184;-71
2022/04/03 06:43:21;;;;;;;0.10;0.10;;;7.80;71.80;;;;;;5012999;28;20658;-70
2022/04/03 06:45:48;;;;;;;0.10;0.10;;;7.90;71.90;;;;;;5010483;28;20640;-72
2022/04/03 06:48:14;;;;;;;0.10;0.10;;;7.90;72.20;;;;;;5010176;28;20327;-71
2022/04/03 06:50:40;;;;;;;0.10;0.10;;;7.90;72.30;;;;;;5012846;28;20234;-71
2022/04/03 06:53:05;;;;;;;0.10;0.10;;;7.90;72.20;;;;;;5012979;28;20208;-72
2022/04/03 06:55:31;;;;;;;0.10;0.10;;;7.90;72.10;;;;;;5011469;28;20192;-71
2022/04/03 06:57:57;;;;;;;0.10;0.10;;;7.90;72.50;;;;;;5014563;28;20187;-72
2022/04/03 07:00:23;;;;;;;0.10;0.10;;;7.90;72.50;;;;;;5011262;28;20200;-71
2022/04/03 07:02:49;;;;;;;0.20;0.20;;;8.00;72.40;;;;;;5012655;28;20208;-72
2022/04/03 07:05:15;;;;;;;0.20;0.20;;;8.00;72.30;;;;;;5010826;28;20231;-72
2022/04/03 07:07:41;;;;;;;0.10;0.10;;;8.00;72.30;;;;;;5008357;28;20189;-72
2022/04/03 07:10:08;;;;;;;0.23;0.20;;;8.10;72.30;;;;;;5012212;28;20315;-72
2022/04/03 07:12:34;;;;;;;0.70;0.20;;;8.10;72.00;;;;;;5014256;28;20212;-72
2022/04/03 07:15:00;;;;;;;0.20;0.20;;;8.10;72.40;;;;;;5015689;28;20251;-72
2022/04/03 07:17:25;;;;;;;0.20;0.20;;;8.20;72.50;;;;;;5011470;28;20181;-72
2022/04/03 07:19:52;;;;;;;0.10;0.10;;;8.20;72.80;;;;;;5009220;28;20184;-71
2022/04/03 07:22:18;;;;;;;0.10;0.10;;;8.30;73.00;;;;;;5009332;28;20211;-71
2022/04/03 07:24:44;;;;;;;0.10;0.10;;;8.20;73.00;;;;;;5013779;28;20599;-72
2022/04/03 07:27:09;;;;;;;0.47;0.20;;;8.20;73.40;;;;;;5017503;28;20303;-73
2022/04/03 07:29:35;;;;;;;0.17;0.17;;;8.20;73.50;;;;;;5012933;28;20176;-73
2022/04/03 07:32:01;;;;;;;0.20;0.20;;;8.30;73.40;;;;;;5011756;28;20279;-74
2022/04/03 07:34:27;;;;;;;0.03;0.03;;;8.40;72.90;;;;;;5027256;23;20808;-74
2022/04/03 07:36:52;;;;;;;0.20;0.20;;;8.40;73.30;;;;;;5033663;28;20811;-72
2022/04/03 07:39:18;;;;;;;0.57;0.30;;;8.40;73.10;;;;;;5022082;23;20278;-74
2022/04/03 07:41:44;;;;;;;0.10;0.10;;;8.50;72.90;;;;;;5014115;28;20277;-70
2022/04/03 07:44:11;;;;;;;0.30;0.10;;;8.60;72.30;;;;;;5012469;28;20185;-70
2022/04/03 07:46:37;;;;;;;0.10;0.10;;;8.60;72.30;;;;;;5016511;28;20208;-70
2022/04/03 07:49:04;;;;;;;0.20;0.20;;;8.60;72.20;;;;;;5011202;28;20320;-70
2022/04/03 07:51:31;;;;;;;0.10;0.10;;;8.70;72.60;;;;;;5012074;28;20218;-70
2022/04/03 07:53:56;;;;;;;1.43;0.27;;;8.90;72.00;;;;;;5009438;28;20216;-70
2022/04/03 07:56:22;;;;;;;0.10;0.10;;;9.10;71.20;;;;;;5005196;28;20663;-69
2022/04/03 07:58:48;;;;;;;0.10;0.10;;;9.20;71.30;;;;;;5013845;28;20210;-69
2022/04/03 08:01:14;;;;;;;1.13;0.30;;;9.20;70.20;;;;;;5007157;28;20205;-69
2022/04/03 08:03:40;;;;;;;2.57;0.20;;;9.20;70.30;;;;;;5013705;28;20749;-70
2022/04/03 08:06:06;;;;;;;0.20;0.20;;;9.10;70.20;;;;;;5006878;28;20743;-69
2022/04/03 08:08:32;;;;;;;0.10;0.10;;;9.10;70.40;;;;;;5013049;28;20228;-69
2022/04/03 08:10:58;;;;;;;0.10;0.10;;;9.10;70.30;;;;;;5015251;28;20215;-71
2022/04/03 08:13:24;;;;;;;0.40;0.10;;;9.00;70.40;;;;;;4616989;23;20220;-71
2022/04/03 08:15:50;;;;;;;0.10;0.10;;;9.00;70.20;;;;;;5011471;28;20185;-70
2022/04/03 08:20:51;;;;;;;0.17;0.10;;;8.90;70.30;;;;;;4988590;28;20229;-70
2022/04/03 08:23:16;;;;;;;0.20;0.00;;;9.00;69.00;;;;;;4995546;28;20185;-70
2022/04/03 08:25:45;;;;;;;0.23;0.23;;;9.10;68.40;;;;;;4995754;28;20181;-70
2022/04/03 08:28:11;;;;;;;0.70;0.20;;;9.20;68.60;;;;;;4986487;28;20181;-70
2022/04/03 08:30:38;;;;;;;0.10;0.10;;;9.40;68.40;;;;;;4996146;28;20192;-70
2022/04/03 08:33:05;;;;;;;0.23;0.23;;;9.60;67.50;;;;;;4995390;28;20793;-70
2022/04/03 08:35:32;;;;;;;0.20;0.20;;;9.80;68.10;;;;;;4993743;28;20217;-70
2022/04/03 08:37:59;;;;;;;0.20;0.20;;;10.00;67.60;;;;;;4993177;28;20634;-70
2022/04/03 08:40:26;;;;;;;0.37;0.20;;;10.20;66.10;;;;;;5000192;28;20181;-69
2022/04/03 08:42:54;;;;;;;0.27;0.10;;;10.20;65.90;;;;;;4996154;28;20200;-69
2022/04/03 08:45:20;;;;;;;0.20;0.20;;;10.30;66.10;;;;;;4991961;28;20192;-70
2022/04/03 08:47:52;;;;;;;0.83;0.23;;;10.40;66.10;;;;;;4992455;28;20193;-69
2022/04/03 08:50:20;;;;;;;0.20;0.20;;;10.60;65.60;;;;;;4997346;28;20546;-70
2022/04/03 08:52:51;;;;;;;0.30;0.30;;;10.60;65.00;;;;;;4992386;28;20718;-67
2022/04/03 08:55:18;;;;;;;0.00;0.00;;;10.50;64.80;;;;;;4992060;28;20260;-69
2022/04/03 08:57:44;;;;;;;0.10;0.10;;;10.50;64.70;;;;;;4989515;28;20590;-69
2022/04/03 09:00:13;;;;;;;0.10;0.10;;;10.90;64.80;;;;;;4991944;28;20195;-69
2022/04/03 09:02:40;;;;;;;0.08;0.08;;;11.50;63.50;;;;;;4989652;28;20194;-69
2022/04/03 09:05:06;;;;;;;0.10;0.10;;;12.00;62.00;;;;;;4996900;28;20265;-70
2022/04/03 09:07:32;;;;;;;0.13;0.13;;;12.30;62.30;;;;;;4994998;28;20196;-70
2022/04/03 09:10:16;;;;;;;0.10;0.10;;;12.50;62.20;;;;;;4992802;28;20181;-70
2022/04/03 09:12:47;;;;;;;0.20;0.20;;;12.80;61.40;;;;;;4988504;28;20221;-69
2022/04/03 09:15:21;;;;;;;0.15;0.15;;;13.20;60.80;;;;;;4995086;28;20189;-70
2022/04/03 09:18:00;;;;;;;0.10;0.10;;;13.60;59.80;;;;;;4994621;28;20193;-70
2022/04/03 09:20:30;;;;;;;0.10;0.10;;;14.00;59.10;;;;;;4992992;28;20200;-70
2022/04/03 09:23:01;;;;;;;1.40;0.10;;;14.40;57.70;;;;;;4994420;28;20193;-71
2022/04/03 09:27:58;;;;;;;0.10;0.10;;;14.90;56.10;;;;;;5045809;23;20227;-69
2022/04/03 09:30:35;;;;;;;0.40;0.40;;;14.70;56.00;;;;;;5053179;22;20546;-69
2022/04/03 09:33:02;;;;;;;1.38;0.50;;;14.20;59.50;;;;;;5029345;28;20788;-70
2022/04/03 09:35:31;;;;;;;0.47;0.47;;;14.00;60.70;;;;;;5030067;28;20242;-69
2022/04/03 09:38:12;;;;;;;0.80;0.60;;;13.80;61.40;;;;;;5034597;28;20179;-69
2022/04/03 09:40:49;;;;;;;1.27;0.50;;;13.70;62.80;;;;;;5012365;28;20246;-69
2022/04/03 09:43:18;;;;;;;0.75;0.65;;;13.50;63.10;;;;;;5034724;28;20263;-69
2022/04/03 09:46:11;;;;;;;0.40;0.40;;;13.30;64.00;;;;;;5029815;28;20620;-69
2022/04/03 09:48:41;;;;;;;0.30;0.30;;;13.20;64.90;;;;;;5034714;28;20183;-69
2022/04/03 09:51:11;;;;;;;0.45;0.30;;;13.10;64.80;;;;;;5030110;28;20199;-70
2022/04/03 09:53:49;;;;;;;0.30;0.30;;;13.10;64.00;;;;;;5032974;28;20222;-69
2022/04/03 09:56:28;;;;;;;0.40;0.40;;;12.80;62.30;;;;;;5029624;28;20183;-69
2022/04/03 09:59:01;;;;;;;0.20;0.20;;;12.60;61.80;;;;;;5015004;28;20180;-70
2022/04/03 10:01:38;;;;;;;0.57;0.30;;;12.20;60.70;;;;;;5030224;28;20180;-71
2022/04/03 10:04:09;;;;;;;0.10;0.10;;;11.80;60.60;;;;;;5034629;28;20183;-71
2022/04/03 10:06:43;;;;;;;0.20;0.20;;;11.40;59.60;;;;;;5064822;28;20608;-71
2022/04/03 10:09:11;;;;;;;0.52;0.10;;;11.20;60.00;;;;;;5070304;28;20264;-72
2022/04/03 10:11:41;;;;;;;0.15;0.10;;;11.20;60.10;;;;;;5062326;28;20571;-72
2022/04/03 10:14:11;;;;;;;0.57;0.40;;;11.00;60.40;;;;;;5064184;28;20182;-70
2022/04/03 10:16:37;;;;;;;0.22;0.22;;;10.90;64.00;;;;;;5068917;28;20183;-70
2022/04/03 10:19:03;;;;;;;0.50;0.40;;;11.00;64.60;;;;;;5065407;28;20179;-69
2022/04/03 10:21:40;;;;;;;0.40;0.40;;;11.10;64.60;;;;;;5065205;28;20482;-71
2022/04/03 10:24:20;;;;;;;0.57;0.40;;;11.10;64.80;;;;;;5067164;28;20610;-71
2022/04/03 10:26:57;;;;;;;0.30;0.30;;;11.30;64.80;;;;;;5070781;28;20750;-77
2022/04/03 10:29:24;;;;;;;0.30;0.30;;;11.50;65.00;;;;;;5064607;28;20282;-79
2022/04/03 10:32:03;;;;;;;0.30;0.30;;;11.70;65.20;;;;;;5066023;28;20232;-78
2022/04/03 10:34:30;;;;;;;0.40;0.40;;;12.00;64.70;;;;;;5063832;28;20178;-75
2022/04/03 10:36:56;;;;;;;0.95;0.43;;;12.20;64.30;;;;;;5068568;28;20174;-76
2022/04/03 10:39:29;;;;;;;0.70;0.70;;;12.30;64.20;;;;;;5059956;28;20187;-76
2022/04/03 10:42:15;;;;;;;0.50;0.50;;;12.40;64.50;;;;;;5063959;28;20186;-76
2022/04/03 10:44:41;;;;;;;0.93;0.43;;;12.70;64.80;;;;;;5067093;28;20707;-76
2022/04/03 10:47:07;;;;;;;0.35;0.35;;;13.00;64.10;;;;;;5070667;28;20312;-76
2022/04/03 10:49:42;;;;;;;2.33;0.63;;;13.30;64.00;;;;;;5067769;28;20666;-76
2022/04/03 10:52:21;;;;;;;1.23;0.57;;;13.50;62.70;;;;;;5067129;28;20659;-76
2022/04/03 10:54:51;;;;;;;0.65;0.38;;;13.60;61.80;;;;;;5068425;28;20183;-76
2022/04/03 10:57:39;;;;;;;0.40;0.40;;;13.50;61.60;;;;;;5066952;28;20214;-78
2022/04/03 11:00:20;;;;;;;0.50;0.50;;;13.20;61.70;;;;;;5069023;28;20260;-75
2022/04/03 11:02:57;;;;;;;0.50;0.50;;;12.90;62.20;;;;;;5067791;28;20187;-77
2022/04/03 11:05:23;;;;;;;0.43;0.43;;;12.70;62.80;;;;;;5069783;28;20218;-78
2022/04/03 11:07:59;;;;;;;2.13;0.50;;;12.60;63.50;;;;;;5072630;28;20204;-78
2022/04/03 11:10:58;;;;;;;0.50;0.50;;;12.60;63.50;;;;;;5070704;28;20713;-77
2022/04/03 11:13:29;;;;;;;0.60;0.60;;;12.50;63.70;;;;;;5026345;28;20192;-77
2022/04/03 11:15:56;;;;;;;0.60;0.60;;;12.40;63.80;;;;;;5025308;28;20192;-77
2022/04/03 11:18:28;;;;;;;1.10;0.73;;;12.50;64.20;;;;;;4994540;28;20961;-76
2022/04/03 11:21:12;;;;;;;0.50;0.50;;;12.50;64.70;;;;;;5007394;28;20224;-77
2022/04/03 11:23:45;;;;;;;2.25;0.50;;;13.10;64.60;;;;;;5016354;28;20275;-77
2022/04/03 11:26:12;;;;;;;0.85;0.60;;;13.60;63.90;;;;;;5010328;28;20303;-76
2022/04/03 11:28:39;;;;;;;0.65;0.65;;;13.80;61.80;;;;;;4997497;28;20184;-76
2022/04/03 11:31:06;;;;;;;0.68;0.68;;;13.70;61.40;;;;;;5007397;28;20195;-77
2022/04/03 11:33:32;;;;;;;0.73;0.73;;;13.70;62.00;;;;;;5011090;28;20193;-77
2022/04/03 11:36:06;;;;;;;0.82;0.73;;;13.70;62.30;;;;;;5014380;28;20203;-77
2022/04/03 11:38:39;;;;;;;0.80;0.80;;;13.70;62.30;;;;;;5013116;28;20669;-76
2022/04/03 11:41:09;;;;;;;0.60;0.60;;;13.50;62.60;;;;;;5007674;28;20423;-77
2022/04/03 11:43:35;;;;;;;0.82;0.60;;;13.40;62.40;;;;;;4999532;28;20228;-75
2022/04/03 11:46:02;;;;;;;0.70;0.57;;;13.20;62.90;;;;;;5006614;28;20429;-77
2022/04/03 11:48:30;;;;;;;0.75;0.75;;;12.90;63.00;;;;;;5021112;28;20243;-77
2022/04/03 11:51:12;;;;;;;0.70;0.70;;;12.60;64.00;;;;;;5051335;28;20353;-77
2022/04/03 11:53:41;;;;;;;0.65;0.65;;;12.30;66.10;;;;;;5050484;28;20710;-76
2022/04/03 11:56:14;;;;;;;1.50;0.60;;;12.00;67.10;;;;;;5046242;28;20183;-76
2022/04/03 11:58:48;;;;;;;0.80;0.80;;;11.80;67.90;;;;;;5057506;28;20334;-77
2022/04/03 12:01:24;;;;;;;1.10;0.88;;;11.60;69.70;;;;;;5060798;28;20743;-77
2022/04/03 12:04:01;;;;;;;0.90;0.90;;;11.40;70.00;;;;;;5057051;28;20688;-76
2022/04/03 12:06:30;;;;;;;0.80;0.80;;;11.20;70.20;;;;;;5058129;28;20206;-78
2022/04/03 12:08:56;;;;;;;1.25;0.85;;;11.00;71.20;;;;;;5057399;28;20178;-77
2022/04/03 12:11:30;;;;;;;0.60;0.60;;;10.80;72.70;;;;;;5052080;28;20628;-79
2022/04/03 12:13:58;;;;;;;2.47;1.30;;;10.70;72.30;;;;;;5053046;28;20736;-76
2022/04/03 12:16:26;;;;;;;2.77;0.87;;;10.60;72.40;;;;;;5052845;28;20218;-75
2022/04/03 12:19:03;;;;;;;1.97;1.20;;;10.50;73.10;;;;;;5048556;28;20209;-75
2022/04/03 12:21:47;;;;;;;1.40;1.10;;;10.50;74.20;;;;;;5044172;28;20713;-76
2022/04/03 12:24:18;;;;;;;1.70;1.60;;;10.80;73.20;;;;;;5043770;28;20183;-75
2022/04/03 12:26:45;;;;;;;1.50;1.40;;;11.00;72.80;;;;;;5048482;28;21217;-76
2022/04/03 12:29:11;;;;;;;1.03;1.03;;;11.10;73.10;;;;;;5044636;28;20192;-75
2022/04/03 12:31:37;;;;;;;4.35;1.08;;;11.30;73.60;;;;;;5054685;28;20187;-78
2022/04/03 12:34:15;;;;;;;0.90;0.90;;;11.40;73.30;;;;;;5050039;28;20215;-75
2022/04/03 12:36:52;;;;;;;1.05;0.88;;;11.50;72.60;;;;;;5054263;28;20700;-75
2022/04/03 12:39:49;;;;;;;1.20;0.90;;;11.50;72.20;;;;;;5053360;28;20178;-76
2022/04/03 12:42:17;;;;;;;0.85;0.85;;;11.50;71.70;;;;;;5053538;28;20265;-77
2022/04/03 12:44:52;;;;;;;0.80;0.80;;;11.40;71.00;;;;;;5055396;28;20241;-76
2022/04/03 12:47:24;;;;;;;0.93;0.93;;;11.30;71.50;;;;;;5053655;28;20259;-76
2022/04/03 12:50:06;;;;;;;1.23;1.23;;;11.20;71.00;;;;;;5053877;28;20237;-75
2022/04/03 12:52:54;;;;;;;1.02;1.00;;;11.00;71.20;;;;;;5054009;28;20321;-76
2022/04/03 12:55:35;;;;;;;1.10;1.10;;;10.90;72.40;;;;;;5053021;28;20210;-75
2022/04/03 13:00:53;;;;;;;1.10;1.10;;;10.80;74.00;;;;;;5051623;28;20279;-76
2022/04/03 13:03:34;;;;;;;0.93;0.93;;;10.70;73.20;;;;;;5050378;28;20248;-77
2022/04/03 13:06:06;;;;;;;0.93;0.83;;;10.70;72.50;;;;;;5053657;28;20309;-75